KBWI/BWI METAR and TAF weather

Enter ICAO airport designator
Station Type Date Time Source
KBWI METAR 2022/01/19 19:54 UTC NOAA

KBWI 191954Z 22008G15KT 10SM FEW130 SCT160 BKN250 12/M04 A2998 RMK AO2 SLP152 T01221039


Station Type Date Time Source
KBWI Decoded METAR 2022/01/19 19:54 UTC NOAA

BALTIMORE-WASHINGTON INTERNATIONAL , MD, United States (KBWI) 39-10N 076-41W 59M
Jan 19, 2022 - 02:54 PM EST / 2022.01.19 1954 UTC
Wind: from the SW (220 degrees) at 9 MPH (8 KT) gusting to 17 MPH (15 KT):0
Visibility: 10 mile(s):0
Sky conditions: mostly cloudy
Temperature: 54.0 F (12.2 C)
Dew Point: 25.0 F (-3.9 C)
Relative Humidity: 32%
Pressure (altimeter): 29.98 in. Hg (1015 hPa)
ob: KBWI 191954Z 22008G15KT 10SM FEW130 SCT160 BKN250 12/M04 A2998 RMK AO2 SLP152 T01221039
cycle: 20

Station Type Date Time Source
KBWI TAF 2022/01/19 18:22 UTC NOAA

TAF KBWI 191720Z 1918/2024 22010G20KT P6SM SCT250
FM192200 21007KT P6SM BKN250
FM200500 26003KT 4SM RA BR OVC015
FM201100 34006KT 3SM RASN BR OVC008
FM201300 35007KT 1/2SM SN OVC008
FM201600 35010G17KT 5SM -SN BR OVC015
FM202100 35010G18KT P6SM BKN120

Example: see airport list